Time,TemperatureF,DewpointF,PressureIn,WindDirection,WindDirectionDegrees,WindSpeedMPH,WindSpeedGustMPH,Humidity,HourlyPrecipIn,Conditions,Clouds,dailyrainin,SoftwareType,DateUTC
2013-07-19 00:02:00,73.0,71.0,29.97,WNW,298,0.0,0.0,94,0.00,,,0.00,,2013-07-19 04:02:00,
2013-07-19 00:12:00,73.0,71.0,29.96,WNW,298,0.0,0.0,95,0.00,,,0.00,,2013-07-19 04:12:00,
2013-07-19 00:22:00,72.0,70.0,29.96,WNW,298,0.0,0.0,95,0.00,,,0.00,,2013-07-19 04:22:00,
2013-07-19 00:33:00,72.0,71.0,29.96,WNW,298,0.0,0.0,96,0.00,,,0.00,,2013-07-19 04:33:00,
2013-07-19 00:44:00,72.0,71.0,29.96,WNW,299,0.0,1.0,96,0.00,,,0.00,,2013-07-19 04:44:00,
2013-07-19 00:52:00,72.0,71.0,29.95,WNW,299,0.0,0.0,96,0.00,,,0.00,,2013-07-19 04:52:00,
2013-07-19 01:02:00,72.0,71.0,29.95,WNW,299,0.0,0.0,97,0.00,,,0.00,,2013-07-19 05:02:00,
2013-07-19 01:12:00,72.0,71.0,29.95,WNW,299,0.0,0.0,97,0.00,,,0.00,,2013-07-19 05:12:00,
2013-07-19 01:22:00,72.0,71.0,29.95,WNW,300,0.0,0.0,97,0.00,,,0.00,,2013-07-19 05:22:00,
2013-07-19 01:43:00,71.0,70.0,29.95,WNW,299,0.0,0.0,97,0.00,,,0.00,,2013-07-19 05:43:00,
2013-07-19 01:53:00,71.0,70.0,29.95,WNW,300,0.0,0.0,97,0.00,,,0.00,,2013-07-19 05:53:00,
2013-07-19 02:01:00,71.0,70.0,29.95,WNW,300,0.0,0.0,98,0.00,,,0.00,,2013-07-19 06:01:00,
2013-07-19 02:11:00,71.0,70.0,29.94,WNW,299,0.0,0.0,98,0.00,,,0.00,,2013-07-19 06:11:00,
2013-07-19 02:22:00,71.0,70.0,29.94,WNW,299,0.0,0.0,98,0.00,,,0.00,,2013-07-19 06:22:00,
2013-07-19 02:43:00,71.0,70.0,29.95,WNW,299,0.0,0.0,98,0.00,,,0.00,,2013-07-19 06:43:00,
2013-07-19 02:52:00,71.0,70.0,29.94,WNW,299,0.0,0.0,98,0.00,,,0.00,,2013-07-19 06:52:00,
2013-07-19 03:12:00,70.0,69.0,29.94,WNW,299,0.0,0.0,98,0.00,,,0.00,,2013-07-19 07:12:00,
2013-07-19 03:22:00,70.0,70.0,29.94,WNW,300,0.0,0.0,99,0.00,,,0.00,,2013-07-19 07:22:00,
2013-07-19 03:33:00,70.0,70.0,29.93,WNW,300,0.0,0.0,99,0.00,,,0.00,,2013-07-19 07:33:00,
2013-07-19 03:43:00,71.0,71.0,29.93,WNW,299,0.0,0.0,99,0.00,,,0.00,,2013-07-19 07:43:00,
2013-07-19 03:53:00,71.0,71.0,29.93,WNW,300,0.0,0.0,99,0.00,,,0.00,,2013-07-19 07:53:00,
2013-07-19 04:01:00,70.0,70.0,29.93,WNW,299,0.0,0.0,99,0.00,,,0.00,,2013-07-19 08:01:00,
2013-07-19 04:12:00,70.0,70.0,29.93,WNW,299,0.0,0.0,99,0.00,,,0.00,,2013-07-19 08:12:00,
2013-07-19 04:22:00,70.0,70.0,29.92,WNW,300,0.0,0.0,99,0.00,,,0.00,,2013-07-19 08:22:00,
2013-07-19 04:43:00,70.0,70.0,29.92,WNW,299,0.0,0.0,99,0.00,,,0.00,,2013-07-19 08:43:00,
2013-07-19 04:52:00,70.0,70.0,29.92,WNW,299,0.0,0.0,99,0.00,,,0.00,,2013-07-19 08:52:00,
2013-07-19 05:02:00,70.0,70.0,29.91,WNW,300,0.0,0.0,99,0.00,,,0.00,,2013-07-19 09:02:00,
2013-07-19 05:11:00,70.0,70.0,29.91,WNW,299,0.0,0.0,99,0.00,,,0.00,,2013-07-19 09:11:00,
2013-07-19 05:22:00,70.0,70.0,29.91,WNW,299,0.0,0.0,99,0.00,,,0.00,,2013-07-19 09:22:00,
2013-07-19 05:32:00,70.0,70.0,29.91,WNW,299,0.0,0.0,99,0.00,,,0.00,,2013-07-19 09:32:00,
2013-07-19 05:43:00,70.0,70.0,29.91,WNW,299,0.0,0.0,99,0.00,,,0.00,,2013-07-19 09:43:00,
2013-07-19 05:52:00,70.0,70.0,29.91,WNW,300,0.0,0.0,99,0.00,,,0.00,,2013-07-19 09:52:00,
2013-07-19 06:11:00,70.0,70.0,29.91,WNW,299,0.0,0.0,100,0.00,,,0.00,,2013-07-19 10:11:00,
2013-07-19 06:22:00,70.0,70.0,29.91,WNW,299,0.0,0.0,100,0.00,,,0.00,,2013-07-19 10:22:00,
2013-07-19 06:32:00,70.0,70.0,29.91,WNW,299,0.0,0.0,100,0.00,,,0.00,,2013-07-19 10:32:00,
2013-07-19 06:43:00,71.0,71.0,29.91,WNW,299,0.0,0.0,100,0.00,,,0.00,,2013-07-19 10:43:00,
2013-07-19 06:52:00,71.0,71.0,29.91,WNW,300,0.0,0.0,100,0.00,,,0.00,,2013-07-19 10:52:00,
2013-07-19 07:02:00,71.0,71.0,29.91,WNW,299,0.0,0.0,100,0.00,,,0.00,,2013-07-19 11:02:00,
2013-07-19 07:22:00,73.0,73.0,29.91,WNW,299,0.0,0.0,100,0.00,,,0.00,,2013-07-19 11:22:00,
2013-07-19 07:33:00,73.0,73.0,29.91,WNW,299,0.0,0.0,100,0.00,,,0.00,,2013-07-19 11:33:00,
2013-07-19 07:43:00,73.0,73.0,29.90,WNW,300,0.0,0.0,100,0.00,,,0.00,,2013-07-19 11:43:00,
2013-07-19 07:52:00,74.0,74.0,29.90,WNW,299,0.0,0.0,100,0.00,,,0.00,,2013-07-19 11:52:00,
2013-07-19 08:12:00,75.0,75.0,29.90,WNW,302,0.0,1.0,99,0.00,,,0.00,,2013-07-19 12:12:00,
2013-07-19 08:22:00,76.0,75.0,29.90,NW,305,0.0,1.0,98,0.00,,,0.00,,2013-07-19 12:22:00,
2013-07-19 08:33:00,77.0,75.0,29.90,NW,305,0.0,0.0,95,0.00,,,0.00,,2013-07-19 12:33:00,
2013-07-19 08:44:00,78.0,76.0,29.89,NW,324,0.0,1.0,93,0.00,,,0.00,,2013-07-19 12:44:00,
2013-07-19 08:52:00,79.0,76.0,29.89,NW,319,0.0,1.0,91,0.00,,,0.00,,2013-07-19 12:52:00,
2013-07-19 09:02:00,79.0,76.0,29.89,NW,319,0.0,1.0,91,0.00,,,0.00,,2013-07-19 13:02:00,
2013-07-19 09:22:00,81.0,76.0,29.90,NW,306,0.0,4.0,85,0.00,,,0.00,,2013-07-19 13:22:00,
2013-07-19 09:32:00,82.0,76.0,29.89,NW,304,0.0,2.0,83,0.00,,,0.00,,2013-07-19 13:32:00,
2013-07-19 09:53:00,84.0,76.0,29.89,NNW,335,0.0,4.0,77,0.00,,,0.00,,2013-07-19 13:53:00,
2013-07-19 10:43:00,90.0,79.0,29.87,WNW,295,0.0,5.0,71,0.00,,,0.00,,2013-07-19 14:43:00,
2013-07-19 10:53:00,90.0,78.0,29.87,NNW,338,0.0,5.0,68,0.00,,,0.00,,2013-07-19 14:53:00,
2013-07-19 11:23:00,91.0,77.0,29.87,NW,314,1.0,5.0,63,0.00,,,0.00,,2013-07-19 15:23:00,
2013-07-19 11:32:00,92.0,78.0,29.86,North,359,0.0,4.0,63,0.00,,,0.00,,2013-07-19 15:32:00,
2013-07-19 11:43:00,92.0,77.0,29.86,NNE,23,1.0,2.0,61,0.00,,,0.00,,2013-07-19 15:43:00,
2013-07-19 11:52:00,93.0,76.0,29.86,NE,42,1.0,6.0,58,0.00,,,0.00,,2013-07-19 15:52:00,
2013-07-19 12:22:00,93.0,75.0,29.85,WNW,295,0.0,6.0,57,0.00,,,0.00,,2013-07-19 16:22:00,
2013-07-19 12:43:00,95.0,76.0,29.84,NNW,343,1.0,4.0,55,0.00,,,0.00,,2013-07-19 16:43:00,
2013-07-19 12:52:00,95.0,73.0,29.84,NNW,347,0.0,7.0,50,0.00,,,0.00,,2013-07-19 16:52:00,
2013-07-19 13:43:00,96.0,74.0,29.82,NE,43,1.0,5.0,49,0.00,,,0.00,,2013-07-19 17:43:00,
2013-07-19 14:11:00,96.0,74.0,29.80,NNW,336,1.0,9.0,50,0.00,,,0.00,,2013-07-19 18:11:00,
2013-07-19 14:22:00,97.0,75.0,29.80,East,101,2.0,6.0,49,0.00,,,0.00,,2013-07-19 18:22:00,
2013-07-19 14:32:00,96.0,74.0,29.80,East,89,1.0,7.0,50,0.00,,,0.00,,2013-07-19 18:32:00,
2013-07-19 14:42:00,97.0,75.0,29.79,West,281,1.0,5.0,50,0.00,,,0.00,,2013-07-19 18:42:00,
2013-07-19 14:52:00,97.0,76.0,29.79,ESE,118,0.0,4.0,52,0.00,,,0.00,,2013-07-19 18:52:00,
2013-07-19 15:22:00,98.0,76.0,29.78,NNE,20,0.0,5.0,49,0.00,,,0.00,,2013-07-19 19:22:00,
2013-07-19 15:32:00,98.0,75.0,29.77,WNW,283,0.0,5.0,48,0.00,,,0.00,,2013-07-19 19:32:00,
2013-07-19 15:43:00,98.0,76.0,29.77,NW,308,1.0,5.0,49,0.00,,,0.00,,2013-07-19 19:43:00,
2013-07-19 15:52:00,97.0,75.0,29.76,NNW,338,1.0,7.0,50,0.00,,,0.00,,2013-07-19 19:52:00,
2013-07-19 16:01:00,97.0,75.0,29.75,NNE,13,1.0,4.0,50,0.00,,,0.00,,2013-07-19 20:01:00,
2013-07-19 16:11:00,97.0,76.0,29.75,North,5,0.0,3.0,52,0.00,,,0.00,,2013-07-19 20:11:00,
2013-07-19 16:22:00,97.0,75.0,29.75,NNE,12,1.0,7.0,50,0.00,,,0.00,,2013-07-19 20:22:00,
2013-07-19 16:33:00,97.0,75.0,29.75,NNE,12,1.0,7.0,50,0.00,,,0.00,,2013-07-19 20:33:00,
2013-07-19 16:43:00,97.0,75.0,29.75,NNE,12,1.0,7.0,50,0.00,,,0.00,,2013-07-19 20:43:00,
2013-07-19 17:01:00,95.0,75.0,29.73,East,87,1.0,4.0,52,0.00,,,0.00,,2013-07-19 21:01:00,
2013-07-19 17:11:00,94.0,74.0,29.73,NE,40,1.0,3.0,53,0.00,,,0.00,,2013-07-19 21:11:00,
2013-07-19 17:32:00,93.0,75.0,29.73,North,1,1.0,2.0,57,0.00,,,0.00,,2013-07-19 21:32:00,
2013-07-19 17:42:00,92.0,75.0,29.72,NW,318,1.0,2.0,58,0.00,,,0.00,,2013-07-19 21:42:00,
2013-07-19 17:52:00,91.0,75.0,29.72,ESE,123,0.0,4.0,59,0.00,,,0.00,,2013-07-19 21:52:00,
2013-07-19 18:11:00,91.0,75.0,29.72,ESE,103,0.0,3.0,60,0.00,,,0.00,,2013-07-19 22:11:00,
2013-07-19 18:21:00,91.0,75.0,29.73,ESE,112,1.0,3.0,59,0.00,,,0.00,,2013-07-19 22:21:00,
2013-07-19 18:32:00,90.0,75.0,29.72,ESE,105,0.0,3.0,61,0.00,,,0.00,,2013-07-19 22:32:00,
2013-07-19 18:43:00,90.0,75.0,29.73,ENE,60,0.0,3.0,62,0.00,,,0.00,,2013-07-19 22:43:00,
2013-07-19 18:52:00,90.0,76.0,29.73,ESE,106,0.0,2.0,63,0.00,,,0.00,,2013-07-19 22:52:00,
2013-07-19 19:01:00,90.0,77.0,29.73,NNW,340,0.0,4.0,65,0.00,,,0.00,,2013-07-19 23:01:00,
2013-07-19 19:11:00,90.0,77.0,29.72,NE,49,0.0,2.0,65,0.00,,,0.00,,2013-07-19 23:11:00,
2013-07-19 19:22:00,90.0,77.0,29.72,ENE,60,0.0,2.0,65,0.00,,,0.00,,2013-07-19 23:22:00,
2013-07-19 19:33:00,89.0,76.0,29.73,ENE,66,0.0,1.0,65,0.00,,,0.00,,2013-07-19 23:33:00,
2013-07-19 19:43:00,89.0,76.0,29.73,East,84,0.0,2.0,66,0.00,,,0.00,,2013-07-19 23:43:00,
2013-07-19 19:52:00,89.0,76.0,29.74,ENE,75,0.0,1.0,66,0.00,,,0.00,,2013-07-19 23:52:00,
2013-07-19 20:01:00,88.0,76.0,29.74,ENE,64,0.0,2.0,67,0.00,,,0.00,,2013-07-20 00:01:00,
2013-07-19 20:11:00,88.0,77.0,29.74,WNW,302,0.0,3.0,69,0.00,,,0.00,,2013-07-20 00:11:00,
2013-07-19 20:22:00,87.0,76.0,29.74,North,349,0.0,2.0,70,0.00,,,0.00,,2013-07-20 00:22:00,
2013-07-19 20:32:00,87.0,76.0,29.74,North,349,0.0,1.0,71,0.00,,,0.00,,2013-07-20 00:32:00,
2013-07-19 20:43:00,86.0,76.0,29.74,North,349,0.0,1.0,72,0.00,,,0.00,,2013-07-20 00:43:00,
2013-07-19 20:52:00,86.0,77.0,29.75,NNW,347,0.0,1.0,74,0.00,,,0.00,,2013-07-20 00:52:00,
2013-07-19 21:01:00,85.0,76.0,29.75,NW,318,0.0,1.0,75,0.00,,,0.00,,2013-07-20 01:01:00,
2013-07-19 21:11:00,85.0,77.0,29.75,NW,318,0.0,1.0,77,0.00,,,0.00,,2013-07-20 01:11:00,
2013-07-19 21:22:00,85.0,77.0,29.75,NW,317,0.0,1.0,77,0.00,,,0.00,,2013-07-20 01:22:00,
2013-07-19 21:32:00,84.0,76.0,29.75,NW,305,0.0,1.0,78,0.00,,,0.00,,2013-07-20 01:32:00,
2013-07-19 21:52:00,84.0,77.0,29.75,NNW,347,0.0,1.0,79,0.00,,,0.00,,2013-07-20 01:52:00,
2013-07-19 22:02:00,84.0,77.0,29.75,NNW,347,0.0,1.0,79,0.00,,,0.00,,2013-07-20 02:02:00,
2013-07-19 22:11:00,84.0,77.0,29.75,NNW,347,0.0,1.0,80,0.00,,,0.00,,2013-07-20 02:11:00,
2013-07-19 22:22:00,84.0,77.0,29.75,North,349,0.0,1.0,80,0.00,,,0.00,,2013-07-20 02:22:00,
2013-07-19 22:33:00,83.0,76.0,29.75,North,349,0.0,1.0,80,0.00,,,0.00,,2013-07-20 02:33:00,
2013-07-19 22:44:00,83.0,76.0,29.75,NNW,346,0.0,1.0,80,0.00,,,0.00,,2013-07-20 02:44:00,
2013-07-19 22:52:00,83.0,76.0,29.76,North,358,0.0,2.0,80,0.00,,,0.00,,2013-07-20 02:52:00,
2013-07-19 23:02:00,83.0,76.0,29.76,North,3,0.0,1.0,79,0.00,,,0.00,,2013-07-20 03:02:00,
2013-07-19 23:12:00,83.0,76.0,29.75,North,351,0.0,1.0,80,0.00,,,0.00,,2013-07-20 03:12:00,
2013-07-19 23:22:00,83.0,76.0,29.75,North,356,0.0,1.0,80,0.00,,,0.00,,2013-07-20 03:22:00,
2013-07-19 23:44:00,83.0,77.0,29.75,North,349,0.0,1.0,81,0.00,,,0.00,,2013-07-20 03:44:00,
2013-07-19 23:53:00,83.0,77.0,29.75,North,356,0.0,1.0,81,0.00,,,0.00,,2013-07-20 03:53:00,